sensor_id;sensor_type;location;lat;lon;timestamp;P1;durP1;ratioP1;P2;durP2;ratioP2
12302;SDS011;6214;48.012;7.862;2023-06-24T00:00:34;6.25;;;3.83;;
12302;SDS011;6214;48.012;7.862;2023-06-24T00:03:01;6.70;;;4.20;;
12302;SDS011;6214;48.012;7.862;2023-06-24T00:05:29;6.90;;;3.75;;
12302;SDS011;6214;48.012;7.862;2023-06-24T00:07:58;6.78;;;4.10;;
12302;SDS011;6214;48.012;7.862;2023-06-24T00:10:28;7.15;;;4.00;;
12302;SDS011;6214;48.012;7.862;2023-06-24T00:12:55;7.03;;;4.40;;
12302;SDS011;6214;48.012;7.862;2023-06-24T00:15:22;6.47;;;4.00;;
12302;SDS011;6214;48.012;7.862;2023-06-24T00:17:50;6.47;;;3.90;;
12302;SDS011;6214;48.012;7.862;2023-06-24T00:20:17;6.65;;;3.80;;
12302;SDS011;6214;48.012;7.862;2023-06-24T00:22:46;6.40;;;4.20;;
12302;SDS011;6214;48.012;7.862;2023-06-24T00:25:15;6.67;;;3.73;;
12302;SDS011;6214;48.012;7.862;2023-06-24T00:27:42;8.82;;;4.05;;
12302;SDS011;6214;48.012;7.862;2023-06-24T00:30:09;7.93;;;4.22;;
12302;SDS011;6214;48.012;7.862;2023-06-24T00:32:37;7.65;;;3.97;;
12302;SDS011;6214;48.012;7.862;2023-06-24T00:35:04;6.22;;;4.00;;
12302;SDS011;6214;48.012;7.862;2023-06-24T00:37:32;7.22;;;4.00;;
12302;SDS011;6214;48.012;7.862;2023-06-24T00:39:58;6.97;;;3.75;;
12302;SDS011;6214;48.012;7.862;2023-06-24T00:42:26;7.20;;;4.00;;
12302;SDS011;6214;48.012;7.862;2023-06-24T00:44:53;6.88;;;3.70;;
12302;SDS011;6214;48.012;7.862;2023-06-24T00:47:20;7.95;;;4.32;;
12302;SDS011;6214;48.012;7.862;2023-06-24T00:49:48;6.40;;;4.07;;
12302;SDS011;6214;48.012;7.862;2023-06-24T00:52:15;6.47;;;3.88;;
12302;SDS011;6214;48.012;7.862;2023-06-24T00:54:43;6.43;;;3.83;;
12302;SDS011;6214;48.012;7.862;2023-06-24T00:57:10;7.47;;;3.88;;
12302;SDS011;6214;48.012;7.862;2023-06-24T00:59:39;7.35;;;4.00;;
12302;SDS011;6214;48.012;7.862;2023-06-24T01:02:09;7.47;;;4.33;;
12302;SDS011;6214;48.012;7.862;2023-06-24T01:04:37;6.57;;;3.92;;
12302;SDS011;6214;48.012;7.862;2023-06-24T01:07:05;6.10;;;3.50;;
12302;SDS011;6214;48.012;7.862;2023-06-24T01:09:39;7.30;;;4.10;;
12302;SDS011;6214;48.012;7.862;2023-06-24T01:12:07;6.55;;;3.72;;
12302;SDS011;6214;48.012;7.862;2023-06-24T01:14:34;6.70;;;4.15;;
12302;SDS011;6214;48.012;7.862;2023-06-24T01:17:23;6.50;;;3.75;;
12302;SDS011;6214;48.012;7.862;2023-06-24T01:33:36;6.55;;;4.05;;
12302;SDS011;6214;48.012;7.862;2023-06-24T01:36:11;7.00;;;4.60;;
12302;SDS011;6214;48.012;7.862;2023-06-24T01:38:48;7.93;;;4.40;;
12302;SDS011;6214;48.012;7.862;2023-06-24T01:41:23;7.35;;;4.60;;
12302;SDS011;6214;48.012;7.862;2023-06-24T01:43:52;7.73;;;4.73;;
12302;SDS011;6214;48.012;7.862;2023-06-24T01:46:22;7.70;;;4.90;;
12302;SDS011;6214;48.012;7.862;2023-06-24T01:48:50;6.80;;;4.60;;
12302;SDS011;6214;48.012;7.862;2023-06-24T01:51:21;8.40;;;4.40;;
12302;SDS011;6214;48.012;7.862;2023-06-24T01:53:58;7.32;;;4.50;;
12302;SDS011;6214;48.012;7.862;2023-06-24T01:56:28;8.20;;;4.20;;
12302;SDS011;6214;48.012;7.862;2023-06-24T01:58:57;7.30;;;4.20;;
12302;SDS011;6214;48.012;7.862;2023-06-24T02:01:27;7.28;;;4.38;;
12302;SDS011;6214;48.012;7.862;2023-06-24T02:03:55;6.53;;;4.30;;
12302;SDS011;6214;48.012;7.862;2023-06-24T02:06:23;7.18;;;4.50;;
12302;SDS011;6214;48.012;7.862;2023-06-24T02:08:52;7.70;;;4.30;;
12302;SDS011;6214;48.012;7.862;2023-06-24T02:11:21;7.38;;;4.43;;
12302;SDS011;6214;48.012;7.862;2023-06-24T02:13:50;6.97;;;4.22;;
12302;SDS011;6214;48.012;7.862;2023-06-24T02:16:18;6.85;;;4.10;;
12302;SDS011;6214;48.012;7.862;2023-06-24T02:18:47;7.30;;;4.00;;
12302;SDS011;6214;48.012;7.862;2023-06-24T02:21:17;7.00;;;4.40;;
12302;SDS011;6214;48.012;7.862;2023-06-24T02:23:46;6.90;;;4.65;;
12302;SDS011;6214;48.012;7.862;2023-06-24T02:26:14;6.50;;;4.30;;
12302;SDS011;6214;48.012;7.862;2023-06-24T02:28:42;6.90;;;4.70;;
12302;SDS011;6214;48.012;7.862;2023-06-24T02:31:11;7.93;;;4.28;;
12302;SDS011;6214;48.012;7.862;2023-06-24T02:33:39;6.85;;;4.28;;
12302;SDS011;6214;48.012;7.862;2023-06-24T02:36:07;6.60;;;4.10;;
12302;SDS011;6214;48.012;7.862;2023-06-24T02:38:34;6.60;;;4.30;;
12302;SDS011;6214;48.012;7.862;2023-06-24T02:41:01;6.95;;;4.50;;
12302;SDS011;6214;48.012;7.862;2023-06-24T02:43:31;6.63;;;4.20;;
12302;SDS011;6214;48.012;7.862;2023-06-24T02:45:59;7.03;;;4.22;;
12302;SDS011;6214;48.012;7.862;2023-06-24T02:48:28;6.50;;;4.30;;
12302;SDS011;6214;48.012;7.862;2023-06-24T02:50:58;7.22;;;4.40;;
12302;SDS011;6214;48.012;7.862;2023-06-24T02:53:25;6.47;;;4.10;;
12302;SDS011;6214;48.012;7.862;2023-06-24T02:55:54;7.45;;;4.03;;
12302;SDS011;6214;48.012;7.862;2023-06-24T02:58:21;6.40;;;4.10;;
12302;SDS011;6214;48.012;7.862;2023-06-24T03:00:51;6.40;;;4.05;;
12302;SDS011;6214;48.012;7.862;2023-06-24T03:03:18;6.40;;;4.18;;
12302;SDS011;6214;48.012;7.862;2023-06-24T03:05:46;6.70;;;3.83;;
12302;SDS011;6214;48.012;7.862;2023-06-24T03:08:16;5.97;;;3.67;;
12302;SDS011;6214;48.012;7.862;2023-06-24T03:10:44;7.10;;;4.30;;
12302;SDS011;6214;48.012;7.862;2023-06-24T03:13:10;6.30;;;4.05;;
12302;SDS011;6214;48.012;7.862;2023-06-24T03:15:37;6.90;;;4.40;;
12302;SDS011;6214;48.012;7.862;2023-06-24T03:18:04;7.20;;;4.15;;
12302;SDS011;6214;48.012;7.862;2023-06-24T03:20:31;6.80;;;4.20;;
12302;SDS011;6214;48.012;7.862;2023-06-24T03:23:05;6.80;;;4.40;;
12302;SDS011;6214;48.012;7.862;2023-06-24T03:25:33;7.70;;;4.30;;
12302;SDS011;6214;48.012;7.862;2023-06-24T03:28:00;6.95;;;4.00;;
12302;SDS011;6214;48.012;7.862;2023-06-24T03:30:29;6.60;;;3.90;;
12302;SDS011;6214;48.012;7.862;2023-06-24T03:32:57;7.00;;;4.30;;
12302;SDS011;6214;48.012;7.862;2023-06-24T03:35:24;7.03;;;4.32;;
12302;SDS011;6214;48.012;7.862;2023-06-24T03:37:51;6.60;;;4.05;;
12302;SDS011;6214;48.012;7.862;2023-06-24T03:40:18;6.95;;;4.22;;
12302;SDS011;6214;48.012;7.862;2023-06-24T03:42:44;7.90;;;4.30;;
12302;SDS011;6214;48.012;7.862;2023-06-24T03:45:11;6.60;;;4.10;;
12302;SDS011;6214;48.012;7.862;2023-06-24T03:47:38;8.60;;;4.30;;
12302;SDS011;6214;48.012;7.862;2023-06-24T03:50:05;6.80;;;3.63;;
12302;SDS011;6214;48.012;7.862;2023-06-24T03:52:32;6.40;;;4.20;;
12302;SDS011;6214;48.012;7.862;2023-06-24T03:55:00;7.82;;;4.07;;
12302;SDS011;6214;48.012;7.862;2023-06-24T03:57:29;6.35;;;3.80;;
12302;SDS011;6214;48.012;7.862;2023-06-24T03:59:56;6.38;;;4.00;;
12302;SDS011;6214;48.012;7.862;2023-06-24T04:02:23;6.85;;;4.20;;
12302;SDS011;6214;48.012;7.862;2023-06-24T04:04:50;6.72;;;3.92;;
12302;SDS011;6214;48.012;7.862;2023-06-24T04:07:17;7.70;;;4.18;;
12302;SDS011;6214;48.012;7.862;2023-06-24T04:09:54;7.10;;;4.22;;
12302;SDS011;6214;48.012;7.862;2023-06-24T04:12:22;7.13;;;4.17;;
12302;SDS011;6214;48.012;7.862;2023-06-24T04:14:49;7.05;;;4.07;;
12302;SDS011;6214;48.012;7.862;2023-06-24T04:17:16;8.27;;;4.47;;
12302;SDS011;6214;48.012;7.862;2023-06-24T04:19:43;6.97;;;4.10;;
12302;SDS011;6214;48.012;7.862;2023-06-24T04:22:10;7.50;;;3.80;;
12302;SDS011;6214;48.012;7.862;2023-06-24T04:24:37;6.50;;;3.95;;
12302;SDS011;6214;48.012;7.862;2023-06-24T04:27:05;6.40;;;3.80;;
12302;SDS011;6214;48.012;7.862;2023-06-24T04:29:33;6.90;;;4.22;;
12302;SDS011;6214;48.012;7.862;2023-06-24T04:32:00;7.05;;;3.90;;
12302;SDS011;6214;48.012;7.862;2023-06-24T04:34:27;6.60;;;3.90;;
12302;SDS011;6214;48.012;7.862;2023-06-24T04:36:54;6.20;;;3.85;;
12302;SDS011;6214;48.012;7.862;2023-06-24T04:39:21;6.13;;;3.83;;
12302;SDS011;6214;48.012;7.862;2023-06-24T04:41:48;6.40;;;3.67;;
12302;SDS011;6214;48.012;7.862;2023-06-24T04:44:15;6.50;;;3.80;;
12302;SDS011;6214;48.012;7.862;2023-06-24T04:46:42;6.65;;;3.90;;
12302;SDS011;6214;48.012;7.862;2023-06-24T04:49:09;6.90;;;4.38;;
12302;SDS011;6214;48.012;7.862;2023-06-24T04:51:35;6.20;;;3.83;;
12302;SDS011;6214;48.012;7.862;2023-06-24T04:54:03;6.50;;;4.20;;
12302;SDS011;6214;48.012;7.862;2023-06-24T04:56:30;6.47;;;4.10;;
12302;SDS011;6214;48.012;7.862;2023-06-24T04:58:57;7.10;;;4.00;;
12302;SDS011;6214;48.012;7.862;2023-06-24T05:01:24;6.20;;;3.60;;
12302;SDS011;6214;48.012;7.862;2023-06-24T05:03:51;7.60;;;4.00;;
12302;SDS011;6214;48.012;7.862;2023-06-24T05:06:17;7.22;;;4.35;;
12302;SDS011;6214;48.012;7.862;2023-06-24T05:08:44;6.75;;;4.25;;
12302;SDS011;6214;48.012;7.862;2023-06-24T05:11:11;6.47;;;4.00;;
12302;SDS011;6214;48.012;7.862;2023-06-24T05:13:38;7.22;;;3.85;;
12302;SDS011;6214;48.012;7.862;2023-06-24T05:16:06;6.97;;;3.90;;
12302;SDS011;6214;48.012;7.862;2023-06-24T05:18:32;7.22;;;4.15;;
12302;SDS011;6214;48.012;7.862;2023-06-24T05:20:59;6.65;;;4.18;;
12302;SDS011;6214;48.012;7.862;2023-06-24T05:23:26;8.32;;;4.28;;
12302;SDS011;6214;48.012;7.862;2023-06-24T05:25:53;6.60;;;3.90;;
12302;SDS011;6214;48.012;7.862;2023-06-24T05:28:20;6.20;;;4.30;;
12302;SDS011;6214;48.012;7.862;2023-06-24T05:30:47;7.15;;;4.50;;
12302;SDS011;6214;48.012;7.862;2023-06-24T05:33:13;7.90;;;4.50;;
12302;SDS011;6214;48.012;7.862;2023-06-24T05:35:42;7.45;;;4.78;;
12302;SDS011;6214;48.012;7.862;2023-06-24T05:38:10;6.65;;;4.55;;
12302;SDS011;6214;48.012;7.862;2023-06-24T05:40:36;7.35;;;4.60;;
12302;SDS011;6214;48.012;7.862;2023-06-24T05:43:03;7.20;;;4.90;;
12302;SDS011;6214;48.012;7.862;2023-06-24T05:45:30;6.70;;;4.30;;
12302;SDS011;6214;48.012;7.862;2023-06-24T05:47:57;7.65;;;4.78;;
12302;SDS011;6214;48.012;7.862;2023-06-24T05:50:24;6.95;;;4.55;;
12302;SDS011;6214;48.012;7.862;2023-06-24T05:52:51;7.43;;;4.60;;
12302;SDS011;6214;48.012;7.862;2023-06-24T05:55:17;7.27;;;4.80;;
12302;SDS011;6214;48.012;7.862;2023-06-24T05:57:44;8.15;;;4.60;;
12302;SDS011;6214;48.012;7.862;2023-06-24T06:00:11;7.40;;;4.80;;
12302;SDS011;6214;48.012;7.862;2023-06-24T06:02:38;7.82;;;4.60;;
12302;SDS011;6214;48.012;7.862;2023-06-24T06:05:05;8.18;;;4.70;;
12302;SDS011;6214;48.012;7.862;2023-06-24T06:07:32;7.50;;;4.55;;
12302;SDS011;6214;48.012;7.862;2023-06-24T06:09:59;7.38;;;4.57;;
12302;SDS011;6214;48.012;7.862;2023-06-24T06:12:27;7.35;;;4.40;;
12302;SDS011;6214;48.012;7.862;2023-06-24T06:14:53;7.13;;;4.00;;
12302;SDS011;6214;48.012;7.862;2023-06-24T06:17:20;6.37;;;3.87;;
12302;SDS011;6214;48.012;7.862;2023-06-24T06:19:47;6.53;;;4.40;;
12302;SDS011;6214;48.012;7.862;2023-06-24T06:22:17;6.65;;;4.45;;
12302;SDS011;6214;48.012;7.862;2023-06-24T06:24:44;7.05;;;3.90;;
12302;SDS011;6214;48.012;7.862;2023-06-24T06:27:12;7.20;;;4.03;;
12302;SDS011;6214;48.012;7.862;2023-06-24T06:29:39;7.80;;;4.30;;
12302;SDS011;6214;48.012;7.862;2023-06-24T06:32:07;7.00;;;3.90;;
12302;SDS011;6214;48.012;7.862;2023-06-24T06:34:34;6.32;;;3.60;;
12302;SDS011;6214;48.012;7.862;2023-06-24T06:37:01;6.97;;;4.10;;
12302;SDS011;6214;48.012;7.862;2023-06-24T06:39:27;6.17;;;3.90;;
12302;SDS011;6214;48.012;7.862;2023-06-24T06:41:54;6.90;;;3.88;;
12302;SDS011;6214;48.012;7.862;2023-06-24T06:44:21;7.28;;;4.20;;
12302;SDS011;6214;48.012;7.862;2023-06-24T06:46:48;7.10;;;3.75;;
12302;SDS011;6214;48.012;7.862;2023-06-24T06:49:15;5.80;;;3.55;;
12302;SDS011;6214;48.012;7.862;2023-06-24T06:51:42;6.20;;;3.70;;
12302;SDS011;6214;48.012;7.862;2023-06-24T06:54:09;6.13;;;3.72;;
12302;SDS011;6214;48.012;7.862;2023-06-24T06:56:36;5.90;;;3.65;;
12302;SDS011;6214;48.012;7.862;2023-06-24T06:59:02;6.50;;;3.80;;
12302;SDS011;6214;48.012;7.862;2023-06-24T07:01:29;6.70;;;3.73;;
12302;SDS011;6214;48.012;7.862;2023-06-24T07:03:56;5.80;;;3.60;;
12302;SDS011;6214;48.012;7.862;2023-06-24T07:06:23;5.65;;;3.60;;
12302;SDS011;6214;48.012;7.862;2023-06-24T07:08:50;6.32;;;3.50;;
12302;SDS011;6214;48.012;7.862;2023-06-24T07:11:16;6.90;;;3.97;;
12302;SDS011;6214;48.012;7.862;2023-06-24T07:13:43;6.00;;;3.40;;
12302;SDS011;6214;48.012;7.862;2023-06-24T07:16:12;6.07;;;3.80;;
12302;SDS011;6214;48.012;7.862;2023-06-24T07:18:39;5.90;;;3.40;;
12302;SDS011;6214;48.012;7.862;2023-06-24T07:21:06;5.90;;;3.33;;
12302;SDS011;6214;48.012;7.862;2023-06-24T07:23:32;6.10;;;3.70;;
12302;SDS011;6214;48.012;7.862;2023-06-24T07:25:59;6.15;;;3.90;;
12302;SDS011;6214;48.012;7.862;2023-06-24T07:28:29;7.13;;;4.00;;
12302;SDS011;6214;48.012;7.862;2023-06-24T07:30:56;6.13;;;3.78;;
12302;SDS011;6214;48.012;7.862;2023-06-24T07:33:23;6.40;;;3.70;;
12302;SDS011;6214;48.012;7.862;2023-06-24T07:35:50;6.30;;;3.80;;
12302;SDS011;6214;48.012;7.862;2023-06-24T07:38:17;6.30;;;3.47;;
12302;SDS011;6214;48.012;7.862;2023-06-24T07:40:44;6.15;;;3.63;;
12302;SDS011;6214;48.012;7.862;2023-06-24T07:43:11;6.10;;;3.45;;
12302;SDS011;6214;48.012;7.862;2023-06-24T07:45:37;5.90;;;3.40;;
12302;SDS011;6214;48.012;7.862;2023-06-24T07:48:04;6.50;;;3.67;;
12302;SDS011;6214;48.012;7.862;2023-06-24T07:50:33;6.50;;;3.70;;
12302;SDS011;6214;48.012;7.862;2023-06-24T07:53:02;6.03;;;3.85;;
12302;SDS011;6214;48.012;7.862;2023-06-24T07:55:29;6.10;;;3.83;;
12302;SDS011;6214;48.012;7.862;2023-06-24T07:57:56;6.10;;;3.90;;
12302;SDS011;6214;48.012;7.862;2023-06-24T08:00:24;6.60;;;3.90;;
12302;SDS011;6214;48.012;7.862;2023-06-24T08:02:51;5.50;;;3.30;;
12302;SDS011;6214;48.012;7.862;2023-06-24T08:05:18;6.70;;;3.60;;
12302;SDS011;6214;48.012;7.862;2023-06-24T08:07:46;6.50;;;3.85;;
12302;SDS011;6214;48.012;7.862;2023-06-24T08:10:13;5.90;;;3.88;;
12302;SDS011;6214;48.012;7.862;2023-06-24T08:12:40;6.80;;;3.40;;
12302;SDS011;6214;48.012;7.862;2023-06-24T08:15:07;6.10;;;3.60;;
12302;SDS011;6214;48.012;7.862;2023-06-24T08:17:34;6.10;;;3.67;;
12302;SDS011;6214;48.012;7.862;2023-06-24T08:20:02;5.77;;;3.50;;
12302;SDS011;6214;48.012;7.862;2023-06-24T08:22:30;6.30;;;3.60;;
12302;SDS011;6214;48.012;7.862;2023-06-24T08:24:57;5.90;;;3.58;;
12302;SDS011;6214;48.012;7.862;2023-06-24T08:31:30;6.80;;;3.90;;
12302;SDS011;6214;48.012;7.862;2023-06-24T08:34:01;6.00;;;3.60;;
12302;SDS011;6214;48.012;7.862;2023-06-24T08:36:33;5.90;;;3.80;;
12302;SDS011;6214;48.012;7.862;2023-06-24T08:39:00;6.30;;;3.40;;
12302;SDS011;6214;48.012;7.862;2023-06-24T08:41:27;5.93;;;3.45;;
12302;SDS011;6214;48.012;7.862;2023-06-24T08:43:54;5.87;;;3.60;;
12302;SDS011;6214;48.012;7.862;2023-06-24T08:46:21;6.60;;;3.92;;
12302;SDS011;6214;48.012;7.862;2023-06-24T08:48:58;5.60;;;3.30;;
12302;SDS011;6214;48.012;7.862;2023-06-24T08:51:29;5.90;;;3.53;;
12302;SDS011;6214;48.012;7.862;2023-06-24T08:53:59;5.75;;;3.60;;
12302;SDS011;6214;48.012;7.862;2023-06-24T08:56:27;5.82;;;3.55;;
12302;SDS011;6214;48.012;7.862;2023-06-24T08:58:54;6.30;;;3.60;;
12302;SDS011;6214;48.012;7.862;2023-06-24T09:01:21;6.30;;;4.30;;
12302;SDS011;6214;48.012;7.862;2023-06-24T09:03:51;5.80;;;3.65;;
12302;SDS011;6214;48.012;7.862;2023-06-24T09:06:18;6.15;;;3.60;;
12302;SDS011;6214;48.012;7.862;2023-06-24T09:08:52;6.50;;;4.00;;
12302;SDS011;6214;48.012;7.862;2023-06-24T09:11:26;6.22;;;3.67;;
12302;SDS011;6214;48.012;7.862;2023-06-24T09:13:54;6.63;;;3.53;;
12302;SDS011;6214;48.012;7.862;2023-06-24T09:16:23;5.70;;;3.47;;
12302;SDS011;6214;48.012;7.862;2023-06-24T09:18:51;6.50;;;3.80;;
12302;SDS011;6214;48.012;7.862;2023-06-24T09:21:25;6.00;;;3.80;;
12302;SDS011;6214;48.012;7.862;2023-06-24T09:23:57;6.35;;;3.80;;
12302;SDS011;6214;48.012;7.862;2023-06-24T09:26:25;6.20;;;3.75;;
12302;SDS011;6214;48.012;7.862;2023-06-24T09:28:53;5.70;;;3.60;;
12302;SDS011;6214;48.012;7.862;2023-06-24T09:31:20;6.10;;;3.47;;
12302;SDS011;6214;48.012;7.862;2023-06-24T09:33:50;6.00;;;3.65;;
12302;SDS011;6214;48.012;7.862;2023-06-24T09:36:17;5.90;;;3.70;;
12302;SDS011;6214;48.012;7.862;2023-06-24T09:38:44;5.70;;;3.33;;
12302;SDS011;6214;48.012;7.862;2023-06-24T09:41:12;6.85;;;3.55;;
12302;SDS011;6214;48.012;7.862;2023-06-24T09:43:41;6.65;;;4.00;;
12302;SDS011;6214;48.012;7.862;2023-06-24T09:46:10;6.00;;;3.60;;
12302;SDS011;6214;48.012;7.862;2023-06-24T09:48:38;7.30;;;4.50;;
12302;SDS011;6214;48.012;7.862;2023-06-24T09:51:05;5.97;;;3.58;;
12302;SDS011;6214;48.012;7.862;2023-06-24T09:53:35;7.13;;;4.38;;
12302;SDS011;6214;48.012;7.862;2023-06-24T09:56:03;6.32;;;4.05;;
12302;SDS011;6214;48.012;7.862;2023-06-24T09:58:32;5.70;;;3.47;;
12302;SDS011;6214;48.012;7.862;2023-06-24T10:01:03;7.27;;;4.10;;
12302;SDS011;6214;48.012;7.862;2023-06-24T10:03:32;5.95;;;3.50;;
12302;SDS011;6214;48.012;7.862;2023-06-24T10:06:01;6.03;;;3.63;;
12302;SDS011;6214;48.012;7.862;2023-06-24T10:08:29;7.13;;;3.95;;
12302;SDS011;6214;48.012;7.862;2023-06-24T10:10:57;6.53;;;4.18;;
12302;SDS011;6214;48.012;7.862;2023-06-24T10:13:28;7.15;;;3.63;;
12302;SDS011;6214;48.012;7.862;2023-06-24T10:15:56;6.00;;;3.97;;
12302;SDS011;6214;48.012;7.862;2023-06-24T10:21:04;6.50;;;3.90;;
12302;SDS011;6214;48.012;7.862;2023-06-24T10:23:33;6.10;;;3.60;;
12302;SDS011;6214;48.012;7.862;2023-06-24T10:26:11;6.00;;;3.80;;
12302;SDS011;6214;48.012;7.862;2023-06-24T10:47:37;7.60;;;3.80;;
12302;SDS011;6214;48.012;7.862;2023-06-24T10:50:23;6.20;;;4.00;;
12302;SDS011;6214;48.012;7.862;2023-06-24T10:52:51;6.47;;;3.80;;
12302;SDS011;6214;48.012;7.862;2023-06-24T10:55:26;6.32;;;3.92;;
12302;SDS011;6214;48.012;7.862;2023-06-24T10:57:53;6.15;;;3.80;;
12302;SDS011;6214;48.012;7.862;2023-06-24T11:00:20;6.30;;;4.00;;
12302;SDS011;6214;48.012;7.862;2023-06-24T11:02:48;6.85;;;3.80;;
12302;SDS011;6214;48.012;7.862;2023-06-24T11:05:16;6.40;;;3.60;;
12302;SDS011;6214;48.012;7.862;2023-06-24T11:07:43;6.30;;;3.40;;
12302;SDS011;6214;48.012;7.862;2023-06-24T11:10:11;5.68;;;3.47;;
12302;SDS011;6214;48.012;7.862;2023-06-24T11:12:40;6.43;;;3.47;;
12302;SDS011;6214;48.012;7.862;2023-06-24T11:15:10;5.50;;;3.20;;
12302;SDS011;6214;48.012;7.862;2023-06-24T11:17:38;6.28;;;3.75;;
12302;SDS011;6214;48.012;7.862;2023-06-24T11:20:07;5.78;;;3.58;;
12302;SDS011;6214;48.012;7.862;2023-06-24T11:22:35;5.53;;;3.20;;
12302;SDS011;6214;48.012;7.862;2023-06-24T11:25:03;6.20;;;3.30;;
12302;SDS011;6214;48.012;7.862;2023-06-24T11:27:31;6.10;;;3.47;;
12302;SDS011;6214;48.012;7.862;2023-06-24T11:29:59;5.60;;;3.28;;
12302;SDS011;6214;48.012;7.862;2023-06-24T11:32:35;5.90;;;3.20;;
12302;SDS011;6214;48.012;7.862;2023-06-24T11:35:05;5.32;;;2.90;;
12302;SDS011;6214;48.012;7.862;2023-06-24T11:37:34;5.22;;;3.00;;
12302;SDS011;6214;48.012;7.862;2023-06-24T11:40:05;7.50;;;4.20;;
12302;SDS011;6214;48.012;7.862;2023-06-24T11:42:37;6.90;;;3.50;;
12302;SDS011;6214;48.012;7.862;2023-06-24T11:45:11;5.72;;;2.88;;
12302;SDS011;6214;48.012;7.862;2023-06-24T11:47:42;5.18;;;2.55;;
12302;SDS011;6214;48.012;7.862;2023-06-24T11:50:10;5.15;;;2.80;;
12302;SDS011;6214;48.012;7.862;2023-06-24T11:52:49;5.60;;;3.13;;
12302;SDS011;6214;48.012;7.862;2023-06-24T11:55:20;5.78;;;3.00;;
12302;SDS011;6214;48.012;7.862;2023-06-24T12:00:25;5.40;;;3.10;;
12302;SDS011;6214;48.012;7.862;2023-06-24T12:02:58;5.90;;;3.00;;
12302;SDS011;6214;48.012;7.862;2023-06-24T12:05:28;5.30;;;2.90;;
12302;SDS011;6214;48.012;7.862;2023-06-24T12:08:06;5.47;;;3.00;;
12302;SDS011;6214;48.012;7.862;2023-06-24T12:10:36;5.60;;;3.10;;
12302;SDS011;6214;48.012;7.862;2023-06-24T12:13:05;5.50;;;3.10;;
12302;SDS011;6214;48.012;7.862;2023-06-24T12:15:32;5.90;;;2.90;;
12302;SDS011;6214;48.012;7.862;2023-06-24T12:18:00;5.45;;;2.97;;
12302;SDS011;6214;48.012;7.862;2023-06-24T12:20:29;5.50;;;3.00;;
12302;SDS011;6214;48.012;7.862;2023-06-24T12:23:02;5.80;;;2.80;;
12302;SDS011;6214;48.012;7.862;2023-06-24T12:25:32;5.70;;;2.88;;
12302;SDS011;6214;48.012;7.862;2023-06-24T12:27:59;5.32;;;2.60;;
12302;SDS011;6214;48.012;7.862;2023-06-24T12:30:27;5.90;;;3.10;;
12302;SDS011;6214;48.012;7.862;2023-06-24T12:32:54;6.97;;;3.30;;
12302;SDS011;6214;48.012;7.862;2023-06-24T12:35:22;5.07;;;2.60;;
12302;SDS011;6214;48.012;7.862;2023-06-24T12:37:52;5.50;;;2.90;;
12302;SDS011;6214;48.012;7.862;2023-06-24T12:40:20;5.53;;;2.90;;
12302;SDS011;6214;48.012;7.862;2023-06-24T12:42:47;5.22;;;2.88;;
12302;SDS011;6214;48.012;7.862;2023-06-24T12:45:14;5.90;;;2.72;;
12302;SDS011;6214;48.012;7.862;2023-06-24T12:47:41;6.00;;;3.00;;
12302;SDS011;6214;48.012;7.862;2023-06-24T12:50:08;5.75;;;2.90;;
12302;SDS011;6214;48.012;7.862;2023-06-24T12:52:36;5.07;;;2.60;;
12302;SDS011;6214;48.012;7.862;2023-06-24T12:55:04;5.10;;;2.70;;
12302;SDS011;6214;48.012;7.862;2023-06-24T12:57:34;5.20;;;2.70;;
12302;SDS011;6214;48.012;7.862;2023-06-24T13:00:04;5.20;;;2.70;;
12302;SDS011;6214;48.012;7.862;2023-06-24T13:02:32;5.00;;;2.67;;
12302;SDS011;6214;48.012;7.862;2023-06-24T13:05:00;5.10;;;2.60;;
12302;SDS011;6214;48.012;7.862;2023-06-24T13:07:27;5.50;;;2.60;;
12302;SDS011;6214;48.012;7.862;2023-06-24T13:09:54;5.20;;;2.90;;
12302;SDS011;6214;48.012;7.862;2023-06-24T13:12:21;5.40;;;2.70;;
12302;SDS011;6214;48.012;7.862;2023-06-24T13:14:48;6.82;;;2.95;;
12302;SDS011;6214;48.012;7.862;2023-06-24T13:17:15;6.03;;;3.15;;
12302;SDS011;6214;48.012;7.862;2023-06-24T13:19:42;5.30;;;2.90;;
12302;SDS011;6214;48.012;7.862;2023-06-24T13:22:09;5.10;;;2.70;;
12302;SDS011;6214;48.012;7.862;2023-06-24T13:24:36;6.07;;;3.15;;
12302;SDS011;6214;48.012;7.862;2023-06-24T13:27:03;5.50;;;2.97;;
12302;SDS011;6214;48.012;7.862;2023-06-24T13:29:31;6.20;;;2.90;;
12302;SDS011;6214;48.012;7.862;2023-06-24T13:31:58;5.50;;;2.80;;
12302;SDS011;6214;48.012;7.862;2023-06-24T13:34:25;5.15;;;2.55;;
12302;SDS011;6214;48.012;7.862;2023-06-24T13:36:52;5.55;;;2.67;;
12302;SDS011;6214;48.012;7.862;2023-06-24T13:39:19;5.10;;;2.55;;
12302;SDS011;6214;48.012;7.862;2023-06-24T13:41:50;5.10;;;2.30;;
12302;SDS011;6214;48.012;7.862;2023-06-24T13:44:19;5.50;;;2.80;;
12302;SDS011;6214;48.012;7.862;2023-06-24T13:46:46;5.20;;;2.80;;
12302;SDS011;6214;48.012;7.862;2023-06-24T13:49:13;5.33;;;2.70;;
12302;SDS011;6214;48.012;7.862;2023-06-24T13:51:40;5.70;;;2.65;;
12302;SDS011;6214;48.012;7.862;2023-06-24T13:54:08;5.40;;;2.60;;
12302;SDS011;6214;48.012;7.862;2023-06-24T13:56:36;5.40;;;2.60;;
12302;SDS011;6214;48.012;7.862;2023-06-24T13:59:03;5.80;;;2.80;;
12302;SDS011;6214;48.012;7.862;2023-06-24T14:01:30;5.40;;;2.72;;
12302;SDS011;6214;48.012;7.862;2023-06-24T14:03:58;5.07;;;2.77;;
12302;SDS011;6214;48.012;7.862;2023-06-24T14:06:25;5.90;;;2.70;;
12302;SDS011;6214;48.012;7.862;2023-06-24T14:08:52;5.82;;;2.80;;
12302;SDS011;6214;48.012;7.862;2023-06-24T14:11:20;5.40;;;2.83;;
12302;SDS011;6214;48.012;7.862;2023-06-24T14:13:47;5.80;;;2.80;;
12302;SDS011;6214;48.012;7.862;2023-06-24T14:16:15;5.30;;;2.60;;
12302;SDS011;6214;48.012;7.862;2023-06-24T14:18:43;5.78;;;2.60;;
12302;SDS011;6214;48.012;7.862;2023-06-24T14:21:10;5.40;;;2.80;;
12302;SDS011;6214;48.012;7.862;2023-06-24T14:23:37;5.00;;;2.30;;
12302;SDS011;6214;48.012;7.862;2023-06-24T14:26:04;6.50;;;2.70;;
12302;SDS011;6214;48.012;7.862;2023-06-24T14:28:31;5.40;;;2.75;;
12302;SDS011;6214;48.012;7.862;2023-06-24T14:30:58;5.70;;;2.90;;
12302;SDS011;6214;48.012;7.862;2023-06-24T14:33:25;5.40;;;2.60;;
12302;SDS011;6214;48.012;7.862;2023-06-24T14:35:52;5.15;;;2.60;;
12302;SDS011;6214;48.012;7.862;2023-06-24T14:38:19;5.30;;;2.63;;
12302;SDS011;6214;48.012;7.862;2023-06-24T14:40:46;5.63;;;2.90;;
12302;SDS011;6214;48.012;7.862;2023-06-24T14:43:14;5.40;;;2.80;;
12302;SDS011;6214;48.012;7.862;2023-06-24T14:45:41;5.75;;;2.53;;
12302;SDS011;6214;48.012;7.862;2023-06-24T14:48:08;5.43;;;2.67;;
12302;SDS011;6214;48.012;7.862;2023-06-24T14:50:35;6.35;;;2.80;;
12302;SDS011;6214;48.012;7.862;2023-06-24T14:53:02;5.30;;;2.80;;
12302;SDS011;6214;48.012;7.862;2023-06-24T14:55:30;6.17;;;2.77;;
12302;SDS011;6214;48.012;7.862;2023-06-24T14:57:57;5.30;;;2.50;;
12302;SDS011;6214;48.012;7.862;2023-06-24T15:00:24;5.50;;;2.70;;
12302;SDS011;6214;48.012;7.862;2023-06-24T15:02:51;5.60;;;2.50;;
12302;SDS011;6214;48.012;7.862;2023-06-24T15:05:18;5.40;;;2.70;;
12302;SDS011;6214;48.012;7.862;2023-06-24T15:07:45;5.60;;;2.80;;
12302;SDS011;6214;48.012;7.862;2023-06-24T15:10:12;5.10;;;2.80;;
12302;SDS011;6214;48.012;7.862;2023-06-24T15:12:39;5.40;;;2.80;;
12302;SDS011;6214;48.012;7.862;2023-06-24T15:15:07;5.70;;;2.80;;
12302;SDS011;6214;48.012;7.862;2023-06-24T15:17:34;5.17;;;2.53;;
12302;SDS011;6214;48.012;7.862;2023-06-24T15:20:02;6.27;;;2.70;;
12302;SDS011;6214;48.012;7.862;2023-06-24T15:22:30;5.10;;;2.60;;
12302;SDS011;6214;48.012;7.862;2023-06-24T15:24:57;5.90;;;2.73;;
12302;SDS011;6214;48.012;7.862;2023-06-24T15:27:24;5.20;;;2.60;;
12302;SDS011;6214;48.012;7.862;2023-06-24T15:29:51;5.60;;;2.80;;
12302;SDS011;6214;48.012;7.862;2023-06-24T15:32:18;5.30;;;2.53;;
12302;SDS011;6214;48.012;7.862;2023-06-24T15:34:45;5.93;;;3.00;;
12302;SDS011;6214;48.012;7.862;2023-06-24T15:37:12;5.10;;;2.67;;
12302;SDS011;6214;48.012;7.862;2023-06-24T15:39:41;5.30;;;2.80;;
12302;SDS011;6214;48.012;7.862;2023-06-24T15:42:08;5.30;;;2.60;;
12302;SDS011;6214;48.012;7.862;2023-06-24T15:44:35;5.20;;;2.60;;
12302;SDS011;6214;48.012;7.862;2023-06-24T15:47:02;5.30;;;2.80;;